Time;durP1;ratioP1;P1;durP2;ratioP2;P2;SDS_P1;SDS_P2;PMS_P1;PMS_P2;Temp;Humidity;BMP_temperature;BMP_pressure;BME280_temperature;BME280_humidity;BME280_pressure;Samples;Min_cycle;Max_cycle;Signal;HPM_P1;HPM_P2
2024/01/29 00:02:03;;;;;;;12.23;6.80;;;4.90;99.90;;;;;;5037879;28;20538;-81
2024/01/29 00:04:51;;;;;;;12.07;6.87;;;4.80;99.90;;;;;;5025266;28;20240;-81
2024/01/29 00:07:38;;;;;;;12.83;6.97;;;4.90;99.90;;;;;;5051928;28;20267;-81
2024/01/29 00:10:26;;;;;;;15.50;7.90;;;4.90;99.90;;;;;;5051919;28;20198;-81
2024/01/29 00:13:13;;;;;;;12.23;6.77;;;5.00;99.90;;;;;;5037254;28;20352;-81
2024/01/29 00:16:01;;;;;;;11.97;7.47;;;5.00;99.90;;;;;;5036109;28;20194;-81
2024/01/29 00:18:48;;;;;;;14.03;7.57;;;4.90;99.90;;;;;;5051321;28;20199;-81
2024/01/29 00:21:38;;;;;;;14.03;7.50;;;4.90;99.90;;;;;;5051997;28;20203;-81
2024/01/29 00:24:26;;;;;;;15.37;7.93;;;4.90;99.90;;;;;;5055567;28;20222;-81
2024/01/29 00:27:13;;;;;;;15.10;7.37;;;4.90;99.90;;;;;;5055542;28;20338;-81
2024/01/29 00:30:01;;;;;;;13.67;7.57;;;4.90;99.90;;;;;;5041582;28;20570;-81
2024/01/29 00:32:49;;;;;;;14.90;8.10;;;5.00;99.90;;;;;;5054181;28;20327;-81
2024/01/29 00:35:37;;;;;;;15.40;7.37;;;5.00;99.90;;;;;;5041294;28;20749;-81
2024/01/29 00:38:25;;;;;;;14.70;7.87;;;5.00;99.90;;;;;;5054934;28;20202;-81
2024/01/29 00:41:12;;;;;;;13.47;7.77;;;5.00;99.90;;;;;;5055914;28;20267;-81
2024/01/29 00:44:00;;;;;;;13.07;7.10;;;4.80;99.90;;;;;;5039502;28;20250;-81
2024/01/29 00:46:47;;;;;;;12.03;7.70;;;4.90;99.90;;;;;;5039947;28;20198;-81
2024/01/29 00:49:35;;;;;;;15.77;7.77;;;4.80;99.90;;;;;;5039967;28;20591;-81
2024/01/29 00:52:23;;;;;;;15.03;7.93;;;4.90;99.90;;;;;;5041807;28;20202;-81
2024/01/29 00:55:10;;;;;;;14.63;8.10;;;4.90;99.90;;;;;;5054537;28;20260;-81
2024/01/29 00:57:58;;;;;;;14.40;8.10;;;5.00;99.90;;;;;;5054984;28;20631;-81
2024/01/29 01:00:48;;;;;;;18.07;8.67;;;5.10;99.90;;;;;;5055020;28;20574;-81
2024/01/29 01:03:35;;;;;;;14.57;7.90;;;5.00;99.90;;;;;;5040163;28;20302;-81
2024/01/29 01:06:23;;;;;;;16.50;8.40;;;4.80;99.90;;;;;;5055622;28;20234;-81
2024/01/29 01:09:11;;;;;;;15.03;7.77;;;4.90;99.90;;;;;;5055488;28;20194;-81
2024/01/29 01:11:58;;;;;;;17.67;8.53;;;4.90;99.90;;;;;;5055324;28;20572;-81
2024/01/29 01:14:45;;;;;;;18.07;9.03;;;4.90;99.90;;;;;;5053619;28;20598;-81
2024/01/29 01:17:33;;;;;;;18.40;8.00;;;4.80;99.90;;;;;;5053967;28;20202;-81
2024/01/29 01:20:21;;;;;;;15.03;8.07;;;4.70;99.90;;;;;;5040516;28;20828;-81
2024/01/29 01:23:08;;;;;;;16.10;7.93;;;4.60;99.90;;;;;;5040483;28;20187;-82
2024/01/29 01:25:56;;;;;;;16.70;8.00;;;4.50;99.90;;;;;;5054822;28;20274;-81
2024/01/29 01:28:44;;;;;;;15.73;8.13;;;4.50;99.90;;;;;;5054146;28;20217;-81
2024/01/29 01:31:31;;;;;;;15.97;8.63;;;4.50;99.90;;;;;;5054996;28;20604;-81
2024/01/29 01:34:19;;;;;;;15.77;8.53;;;4.60;99.90;;;;;;5038852;28;20654;-81
2024/01/29 01:37:07;;;;;;;13.50;8.43;;;4.50;99.90;;;;;;5040230;28;20200;-81
2024/01/29 01:39:55;;;;;;;13.80;8.07;;;4.50;99.90;;;;;;5053733;28;20240;-81
2024/01/29 01:42:43;;;;;;;14.77;8.17;;;4.50;99.90;;;;;;5040883;28;20641;-81
2024/01/29 01:45:31;;;;;;;15.93;8.13;;;4.60;99.90;;;;;;5053413;28;20226;-81
2024/01/29 01:48:19;;;;;;;13.00;7.70;;;4.50;99.90;;;;;;5054388;28;20200;-81
2024/01/29 01:51:07;;;;;;;16.80;7.73;;;4.50;99.90;;;;;;5040135;28;20596;-81
2024/01/29 01:53:57;;;;;;;15.47;8.53;;;4.50;99.90;;;;;;5052211;28;20199;-81
2024/01/29 01:56:47;;;;;;;14.30;8.50;;;4.50;99.90;;;;;;5053629;28;20588;-81
2024/01/29 01:59:38;;;;;;;14.73;8.30;;;4.40;99.90;;;;;;5039804;28;20204;-81
2024/01/29 02:02:25;;;;;;;17.63;7.73;;;4.40;99.90;;;;;;5053841;28;20276;-82
2024/01/29 02:05:13;;;;;;;16.30;8.00;;;4.30;99.90;;;;;;5053505;28;20300;-81
2024/01/29 02:08:00;;;;;;;13.53;7.97;;;4.30;99.90;;;;;;5040160;28;20192;-81
2024/01/29 02:10:49;;;;;;;14.73;8.50;;;4.20;99.90;;;;;;5053735;28;20677;-81
2024/01/29 02:13:36;;;;;;;13.73;7.37;;;4.20;99.90;;;;;;5054150;28;20575;-81
2024/01/29 02:16:24;;;;;;;16.73;7.63;;;4.00;99.90;;;;;;5038982;28;20190;-81
2024/01/29 02:19:21;;;;;;;17.33;8.77;;;3.90;99.90;;;;;;5053407;28;20191;-81
2024/01/29 02:22:08;;;;;;;17.77;8.23;;;3.90;99.90;;;;;;5038659;28;20191;-81
2024/01/29 02:24:56;;;;;;;15.20;8.10;;;4.00;99.90;;;;;;5039572;28;20256;-81
2024/01/29 02:27:43;;;;;;;15.00;8.20;;;3.90;99.90;;;;;;5053226;28;20218;-81
2024/01/29 02:30:31;;;;;;;17.30;8.67;;;3.90;99.90;;;;;;5038789;28;20210;-81
2024/01/29 02:33:19;;;;;;;18.13;8.37;;;3.90;99.90;;;;;;5037524;28;20659;-81
2024/01/29 02:36:07;;;;;;;14.97;8.13;;;3.90;99.90;;;;;;5053794;28;20206;-82
2024/01/29 02:38:54;;;;;;;15.23;8.33;;;4.00;99.90;;;;;;5039699;28;20688;-81
2024/01/29 02:41:42;;;;;;;15.30;7.97;;;4.00;99.90;;;;;;5038924;28;20802;-81
2024/01/29 02:44:29;;;;;;;15.13;8.50;;;4.00;99.90;;;;;;5053113;28;20268;-81
2024/01/29 02:47:16;;;;;;;15.43;8.20;;;4.00;99.90;;;;;;5053122;28;20237;-81
2024/01/29 02:50:04;;;;;;;15.80;8.17;;;4.00;99.90;;;;;;5039628;28;20565;-81
2024/01/29 02:52:52;;;;;;;14.67;8.50;;;4.10;99.90;;;;;;5052272;28;20195;-82
2024/01/29 02:55:41;;;;;;;14.47;8.07;;;4.00;99.90;;;;;;5038087;28;20578;-81
2024/01/29 02:58:29;;;;;;;17.13;7.97;;;4.00;99.90;;;;;;5038704;28;20343;-81
2024/01/29 03:01:20;;;;;;;13.53;7.83;;;4.00;99.90;;;;;;5052143;28;20278;-82
2024/01/29 03:04:08;;;;;;;14.57;7.80;;;4.00;99.90;;;;;;5051991;28;20296;-81
2024/01/29 03:06:55;;;;;;;14.33;8.13;;;4.10;99.90;;;;;;5052562;28;20345;-81
2024/01/29 03:09:43;;;;;;;13.87;7.60;;;4.10;99.90;;;;;;5052599;28;20198;-82
2024/01/29 03:12:31;;;;;;;14.50;8.13;;;4.00;99.90;;;;;;5052122;28;20225;-81
2024/01/29 03:15:18;;;;;;;14.97;7.87;;;4.00;99.90;;;;;;5051950;28;20191;-82
2024/01/29 03:18:06;;;;;;;14.80;8.23;;;4.10;99.90;;;;;;5052119;28;20209;-82
2024/01/29 03:20:54;;;;;;;14.77;7.93;;;4.10;99.90;;;;;;5052400;28;20198;-81
2024/01/29 03:23:42;;;;;;;14.20;8.23;;;4.10;99.90;;;;;;5052035;28;20195;-82
2024/01/29 03:26:29;;;;;;;13.93;7.60;;;4.30;99.90;;;;;;5051629;28;20698;-82
2024/01/29 03:29:17;;;;;;;14.17;7.87;;;4.30;99.90;;;;;;5038807;28;20655;-81
2024/01/29 03:32:05;;;;;;;14.43;8.00;;;4.40;99.90;;;;;;5051583;28;20547;-81
2024/01/29 03:34:52;;;;;;;13.07;7.57;;;4.50;99.90;;;;;;5051655;28;20191;-81
2024/01/29 03:37:39;;;;;;;14.00;8.20;;;4.40;99.90;;;;;;5038254;28;20334;-82
2024/01/29 03:40:27;;;;;;;17.93;8.70;;;4.30;99.90;;;;;;5052144;28;20199;-81
2024/01/29 03:43:15;;;;;;;14.60;8.63;;;4.30;99.90;;;;;;5037826;28;20208;-81
2024/01/29 03:46:02;;;;;;;14.67;8.23;;;4.30;99.90;;;;;;5036655;28;20712;-81
2024/01/29 03:48:50;;;;;;;14.00;8.50;;;4.30;99.90;;;;;;5037435;28;20211;-82
2024/01/29 03:51:37;;;;;;;16.93;8.53;;;4.30;99.90;;;;;;5051967;28;20662;-81
2024/01/29 03:54:25;;;;;;;16.17;8.97;;;4.20;99.90;;;;;;5051984;28;20651;-81
2024/01/29 03:57:12;;;;;;;15.93;8.30;;;4.20;99.90;;;;;;5052215;28;20694;-82
2024/01/29 04:00:00;;;;;;;15.57;8.13;;;4.20;99.90;;;;;;5055567;28;20207;-81
2024/01/29 04:02:49;;;;;;;15.03;8.60;;;4.20;99.90;;;;;;5040779;28;20634;-81
2024/01/29 04:05:37;;;;;;;16.43;8.50;;;4.20;99.90;;;;;;5054819;28;20250;-82
2024/01/29 04:08:24;;;;;;;17.27;8.60;;;4.20;99.90;;;;;;5029169;28;20191;-81
2024/01/29 04:11:12;;;;;;;13.57;8.03;;;4.10;99.90;;;;;;5055939;28;20191;-81
2024/01/29 04:14:00;;;;;;;13.90;8.30;;;4.00;99.90;;;;;;5054665;28;20195;-81
2024/01/29 04:16:47;;;;;;;14.63;8.63;;;4.00;99.90;;;;;;5056243;28;20635;-81
2024/01/29 04:19:35;;;;;;;13.47;7.83;;;4.00;99.90;;;;;;5055275;28;20575;-82
2024/01/29 04:22:22;;;;;;;14.53;8.37;;;3.90;99.90;;;;;;5055767;28;20197;-82
2024/01/29 04:25:10;;;;;;;13.57;8.17;;;3.90;99.90;;;;;;5055658;28;20242;-81
2024/01/29 04:27:58;;;;;;;18.20;8.30;;;3.90;99.90;;;;;;5056303;28;20702;-82
2024/01/29 04:30:45;;;;;;;15.23;8.20;;;3.90;99.90;;;;;;5041506;28;21070;-82
2024/01/29 04:33:33;;;;;;;13.67;8.13;;;3.90;99.90;;;;;;5055484;28;20328;-82
2024/01/29 04:36:21;;;;;;;16.03;8.47;;;3.80;99.90;;;;;;5056435;28;20677;-82
2024/01/29 04:39:09;;;;;;;17.00;8.80;;;3.80;99.90;;;;;;5054742;28;20651;-81
2024/01/29 04:41:56;;;;;;;14.53;8.60;;;3.70;99.90;;;;;;5040636;28;20215;-82
2024/01/29 04:44:43;;;;;;;12.67;8.10;;;3.80;99.90;;;;;;5055190;28;20594;-82
2024/01/29 04:47:31;;;;;;;13.77;7.97;;;3.80;99.90;;;;;;5055318;28;20270;-82
2024/01/29 04:50:19;;;;;;;16.60;8.20;;;3.90;99.90;;;;;;5041056;28;20196;-82
2024/01/29 04:53:06;;;;;;;16.63;8.57;;;3.80;99.90;;;;;;5041573;28;20213;-81
2024/01/29 04:55:53;;;;;;;14.23;8.50;;;3.80;99.90;;;;;;5055183;28;20195;-81
2024/01/29 04:58:41;;;;;;;14.37;8.00;;;3.80;99.90;;;;;;5055045;28;20197;-81
2024/01/29 05:01:28;;;;;;;13.33;7.87;;;3.80;99.90;;;;;;5040868;28;20191;-81
2024/01/29 05:04:16;;;;;;;15.27;8.60;;;3.70;99.90;;;;;;5039953;28;20200;-81
2024/01/29 05:07:04;;;;;;;15.60;8.57;;;3.70;99.90;;;;;;5055377;28;20191;-82
2024/01/29 05:09:51;;;;;;;17.13;8.67;;;3.70;99.90;;;;;;5040364;28;20278;-81
2024/01/29 05:12:39;;;;;;;17.17;8.43;;;3.80;99.90;;;;;;5039629;28;20214;-81
2024/01/29 05:15:27;;;;;;;16.17;8.57;;;3.80;99.90;;;;;;5055395;28;20206;-81
2024/01/29 05:18:15;;;;;;;12.87;8.70;;;3.80;99.90;;;;;;5040526;28;20774;-81
2024/01/29 05:21:03;;;;;;;16.27;8.90;;;3.80;99.90;;;;;;5039364;28;20194;-81
2024/01/29 05:23:51;;;;;;;14.73;8.63;;;3.70;99.90;;;;;;5053828;28;20191;-82
2024/01/29 05:26:38;;;;;;;15.50;8.53;;;3.60;99.90;;;;;;5053195;28;20332;-81
2024/01/29 05:29:26;;;;;;;15.47;8.43;;;3.60;99.90;;;;;;5040432;28;20195;-81
2024/01/29 05:32:16;;;;;;;15.53;8.87;;;3.60;99.90;;;;;;5040014;28;20226;-81
2024/01/29 05:35:04;;;;;;;14.40;8.23;;;3.70;99.90;;;;;;5039637;28;20744;-81
2024/01/29 05:37:52;;;;;;;14.70;8.60;;;3.80;99.90;;;;;;5053623;28;20205;-82
2024/01/29 05:40:40;;;;;;;13.40;8.33;;;3.70;99.90;;;;;;5054702;28;20284;-81
2024/01/29 05:43:27;;;;;;;14.60;8.57;;;3.60;99.90;;;;;;5054119;28;20195;-81
2024/01/29 05:46:15;;;;;;;16.27;8.50;;;3.50;99.90;;;;;;5054544;28;20222;-81
2024/01/29 05:49:02;;;;;;;14.03;7.70;;;3.40;99.90;;;;;;5054097;28;20191;-81
2024/01/29 05:51:50;;;;;;;15.67;7.43;;;3.40;99.90;;;;;;5040029;28;20684;-81
2024/01/29 05:54:37;;;;;;;15.90;8.43;;;3.40;99.90;;;;;;5038301;28;20309;-81
2024/01/29 05:57:25;;;;;;;13.93;6.97;;;3.30;99.90;;;;;;5039906;28;20210;-81
2024/01/29 06:00:14;;;;;;;13.33;7.43;;;3.20;99.90;;;;;;5053991;28;20199;-81
2024/01/29 06:03:01;;;;;;;13.30;7.30;;;3.20;99.90;;;;;;5038623;28;20422;-81
2024/01/29 06:05:49;;;;;;;14.40;7.70;;;3.20;99.90;;;;;;5039413;28;20703;-81
2024/01/29 06:08:38;;;;;;;14.63;7.57;;;3.30;99.90;;;;;;5053766;28;20677;-81
2024/01/29 06:11:25;;;;;;;12.47;6.70;;;3.30;99.90;;;;;;5053338;28;20221;-81
2024/01/29 06:14:13;;;;;;;12.67;6.97;;;3.30;99.90;;;;;;5053866;28;20191;-81
2024/01/29 06:17:00;;;;;;;15.63;7.33;;;3.20;99.90;;;;;;5039346;28;20198;-81
2024/01/29 06:19:47;;;;;;;11.33;6.87;;;3.10;99.90;;;;;;5052698;28;20205;-81
2024/01/29 06:22:55;;;;;;;12.87;7.20;;;3.20;99.90;;;;;;5053542;28;20198;-81
2024/01/29 06:25:42;;;;;;;14.13;6.93;;;3.20;99.90;;;;;;5038565;28;20215;-81
2024/01/29 06:28:30;;;;;;;13.97;7.10;;;3.20;99.90;;;;;;5039334;28;20197;-82
2024/01/29 06:31:17;;;;;;;13.00;7.80;;;3.20;99.90;;;;;;5052762;28;20198;-82
2024/01/29 06:34:05;;;;;;;15.03;7.87;;;3.10;99.90;;;;;;5025382;28;20561;-82
2024/01/29 06:36:53;;;;;;;13.77;7.93;;;3.00;99.90;;;;;;5038491;28;20708;-82
2024/01/29 06:39:41;;;;;;;12.63;7.80;;;3.10;99.90;;;;;;5052200;28;20199;-82
2024/01/29 06:42:28;;;;;;;13.90;8.10;;;3.00;99.90;;;;;;5052297;28;20214;-81
2024/01/29 06:45:16;;;;;;;14.43;8.40;;;3.00;99.90;;;;;;5038468;28;20214;-82
2024/01/29 06:48:06;;;;;;;15.63;8.20;;;3.10;99.90;;;;;;5052913;28;20273;-82
2024/01/29 06:50:54;;;;;;;14.93;8.93;;;3.10;99.90;;;;;;5038719;28;20195;-82
2024/01/29 06:53:42;;;;;;;14.63;7.97;;;3.30;99.90;;;;;;5037564;28;20320;-81
2024/01/29 06:56:29;;;;;;;15.03;8.23;;;3.00;99.90;;;;;;5038835;28;20222;-82
2024/01/29 06:59:17;;;;;;;11.73;7.27;;;2.90;99.90;;;;;;5051729;28;20572;-81
2024/01/29 07:02:05;;;;;;;11.40;7.00;;;2.90;99.90;;;;;;5040843;28;20280;-82
2024/01/29 07:04:54;;;;;;;12.70;7.17;;;2.90;99.90;;;;;;5056343;28;20231;-82
2024/01/29 07:07:41;;;;;;;12.40;6.80;;;2.90;99.90;;;;;;5037753;28;20195;-83
2024/01/29 07:10:29;;;;;;;12.50;6.80;;;3.00;99.90;;;;;;5052586;28;20233;-83
2024/01/29 07:13:17;;;;;;;11.33;6.33;;;3.00;99.90;;;;;;5053158;28;20293;-87
2024/01/29 07:16:04;;;;;;;10.63;6.60;;;3.00;99.90;;;;;;5051208;28;20333;-83
2024/01/29 07:18:52;;;;;;;11.60;6.20;;;2.90;99.90;;;;;;5051938;28;20206;-83
2024/01/29 07:21:41;;;;;;;10.10;6.23;;;3.10;99.90;;;;;;5052394;28;20199;-82
2024/01/29 07:24:29;;;;;;;9.20;5.57;;;3.10;99.90;;;;;;5051739;28;20218;-81
2024/01/29 07:27:17;;;;;;;10.83;6.27;;;3.00;99.90;;;;;;5051997;28;20695;-82
2024/01/29 07:30:05;;;;;;;12.30;6.40;;;3.00;99.90;;;;;;5052215;28;20205;-83
2024/01/29 07:32:53;;;;;;;11.53;5.73;;;3.10;99.90;;;;;;5052891;28;20248;-83
2024/01/29 07:35:40;;;;;;;9.80;5.30;;;3.10;99.90;;;;;;5052174;28;20332;-82
2024/01/29 07:38:27;;;;;;;9.83;5.47;;;3.10;99.90;;;;;;5051395;28;20191;-81
2024/01/29 07:41:15;;;;;;;8.37;5.23;;;3.10;99.90;;;;;;5053200;28;20194;-81
2024/01/29 07:44:02;;;;;;;9.20;5.30;;;3.20;99.90;;;;;;5051714;28;20277;-83
2024/01/29 07:46:49;;;;;;;10.70;5.70;;;3.20;99.90;;;;;;5051959;28;20323;-80
2024/01/29 07:49:37;;;;;;;9.50;5.37;;;3.30;99.90;;;;;;5052015;28;20269;-79
2024/01/29 07:52:24;;;;;;;8.27;5.30;;;3.40;99.90;;;;;;5051391;28;20281;-79
2024/01/29 07:55:12;;;;;;;7.40;4.80;;;3.50;99.90;;;;;;5052709;28;20196;-79
2024/01/29 07:58:00;;;;;;;7.73;5.40;;;3.50;99.90;;;;;;5037792;28;20301;-83
2024/01/29 08:00:49;;;;;;;8.43;4.87;;;3.60;99.90;;;;;;5037231;28;20858;-83
2024/01/29 08:03:37;;;;;;;7.53;4.37;;;3.40;99.90;;;;;;5037238;28;20208;-85
2024/01/29 08:06:25;;;;;;;9.53;5.10;;;3.80;99.90;;;;;;5052106;28;20234;-81
2024/01/29 08:09:13;;;;;;;8.43;4.97;;;4.40;99.90;;;;;;5036711;28;20198;-81
2024/01/29 08:12:01;;;;;;;8.23;4.80;;;4.90;99.90;;;;;;5051744;28;20233;-82
2024/01/29 08:14:49;;;;;;;8.37;4.73;;;5.30;99.90;;;;;;5037204;28;20206;-83
2024/01/29 08:17:36;;;;;;;6.80;4.70;;;5.40;99.90;;;;;;5052337;28;20202;-84
2024/01/29 08:20:25;;;;;;;7.70;4.57;;;5.70;99.90;;;;;;5051841;28;20733;-83
2024/01/29 08:23:13;;;;;;;7.60;4.63;;;5.60;99.90;;;;;;5023677;28;20199;-84
2024/01/29 08:26:00;;;;;;;8.43;5.07;;;5.70;99.90;;;;;;5052243;28;20210;-83
2024/01/29 08:28:47;;;;;;;6.23;4.70;;;6.00;99.90;;;;;;5053009;28;20195;-83
2024/01/29 08:31:34;;;;;;;11.47;6.23;;;6.20;99.90;;;;;;5050391;28;20202;-83
2024/01/29 08:34:23;;;;;;;6.57;4.17;;;6.40;99.90;;;;;;5051608;28;20683;-81
2024/01/29 08:37:10;;;;;;;6.73;4.87;;;6.30;99.90;;;;;;5051674;28;20201;-83
2024/01/29 08:39:58;;;;;;;7.10;4.63;;;6.50;99.90;;;;;;5051567;28;20206;-84
2024/01/29 08:42:47;;;;;;;7.43;4.37;;;6.50;99.90;;;;;;5038308;28;20260;-84
2024/01/29 08:45:35;;;;;;;6.93;4.93;;;6.50;99.90;;;;;;5054036;28;20223;-84
2024/01/29 08:48:23;;;;;;;7.57;4.63;;;6.50;99.90;;;;;;5054787;28;20204;-84
2024/01/29 08:51:10;;;;;;;7.83;4.40;;;6.40;99.90;;;;;;5040473;28;20237;-84
2024/01/29 08:53:58;;;;;;;8.27;4.70;;;6.40;99.90;;;;;;5055421;28;20323;-83
2024/01/29 08:56:47;;;;;;;12.20;5.27;;;6.20;99.90;;;;;;5054148;28;20517;-84
2024/01/29 08:59:35;;;;;;;9.30;5.93;;;6.10;99.90;;;;;;5054206;28;20456;-84
2024/01/29 09:02:27;;;;;;;9.13;4.90;;;6.00;99.90;;;;;;5054693;28;20207;-83
2024/01/29 09:05:15;;;;;;;9.33;5.13;;;5.80;99.90;;;;;;5053769;28;20296;-83
2024/01/29 09:08:02;;;;;;;8.37;5.03;;;5.60;99.90;;;;;;5055465;28;20568;-83
2024/01/29 09:11:03;;;;;;;10.63;5.43;;;5.30;99.90;;;;;;5054237;28;20219;-83
2024/01/29 09:13:50;;;;;;;9.40;5.60;;;5.20;99.90;;;;;;5054229;28;20289;-83
2024/01/29 09:16:39;;;;;;;9.37;5.47;;;5.00;99.90;;;;;;5039569;28;20607;-83
2024/01/29 09:19:26;;;;;;;12.73;5.80;;;4.80;99.90;;;;;;5038898;28;20246;-83
2024/01/29 09:22:13;;;;;;;10.50;6.10;;;4.60;99.90;;;;;;5040440;28;20588;-83
2024/01/29 09:25:01;;;;;;;8.73;5.80;;;4.70;99.90;;;;;;5054440;28;20199;-83
2024/01/29 09:27:49;;;;;;;9.70;6.23;;;4.70;99.90;;;;;;5039773;28;20212;-83
2024/01/29 09:30:37;;;;;;;9.93;6.23;;;4.80;99.90;;;;;;5040517;28;20582;-83
2024/01/29 09:33:26;;;;;;;10.27;6.17;;;4.70;99.90;;;;;;5053815;28;20566;-84
2024/01/29 09:36:14;;;;;;;10.27;6.37;;;4.80;99.90;;;;;;5054261;28;20199;-83
2024/01/29 09:39:02;;;;;;;10.03;6.17;;;4.80;99.90;;;;;;5040138;28;20192;-83
2024/01/29 09:41:50;;;;;;;11.83;6.03;;;4.70;99.90;;;;;;5038786;28;20213;-83
2024/01/29 09:44:39;;;;;;;11.17;6.00;;;4.70;99.90;;;;;;5054380;28;20658;-82
2024/01/29 09:47:28;;;;;;;9.93;6.17;;;4.70;99.90;;;;;;5039360;28;20215;-82
2024/01/29 09:50:17;;;;;;;9.60;6.23;;;4.80;99.90;;;;;;5054684;28;20198;-82
2024/01/29 09:53:05;;;;;;;9.83;6.17;;;4.80;99.90;;;;;;5054068;28;20282;-83
2024/01/29 09:55:52;;;;;;;9.73;6.20;;;4.70;99.90;;;;;;5038933;28;20219;-83
2024/01/29 09:58:40;;;;;;;8.93;5.93;;;4.70;99.90;;;;;;5053140;28;20296;-82
2024/01/29 10:01:28;;;;;;;10.93;6.00;;;4.70;99.90;;;;;;5054713;28;20228;-83
2024/01/29 10:04:16;;;;;;;10.10;6.07;;;4.80;99.90;;;;;;5039318;28;20199;-83
2024/01/29 10:07:03;;;;;;;10.27;5.93;;;4.80;99.90;;;;;;5039200;28;20234;-83
2024/01/29 10:09:51;;;;;;;10.17;6.40;;;4.90;99.90;;;;;;5053714;28;20198;-83
2024/01/29 10:12:39;;;;;;;10.57;6.40;;;5.00;99.90;;;;;;5054095;28;20225;-83
2024/01/29 10:15:27;;;;;;;11.30;5.80;;;4.80;99.90;;;;;;5053119;28;20671;-82
2024/01/29 10:18:15;;;;;;;9.70;6.03;;;4.90;99.90;;;;;;5053064;28;20279;-82
2024/01/29 10:21:05;;;;;;;10.60;6.47;;;4.90;99.90;;;;;;5053084;28;20191;-83
2024/01/29 10:23:56;;;;;;;12.23;6.20;;;5.00;99.90;;;;;;5039379;28;20191;-83
2024/01/29 10:26:45;;;;;;;8.43;5.83;;;5.00;99.90;;;;;;5052611;28;20229;-83
2024/01/29 10:29:33;;;;;;;11.27;6.50;;;5.00;99.90;;;;;;5038628;28;20659;-83
2024/01/29 10:32:21;;;;;;;10.53;5.60;;;5.10;99.90;;;;;;5053586;28;20193;-82
2024/01/29 10:35:08;;;;;;;9.23;5.43;;;5.10;99.90;;;;;;5053000;28;20682;-83
2024/01/29 10:38:06;;;;;;;8.60;5.80;;;5.10;99.90;;;;;;5052854;28;20200;-82
2024/01/29 10:40:56;;;;;;;9.63;5.73;;;5.20;99.90;;;;;;5053566;28;20199;-83
2024/01/29 10:43:47;;;;;;;9.40;5.67;;;5.40;99.90;;;;;;5038726;28;20184;-82
2024/01/29 10:46:36;;;;;;;7.93;5.10;;;5.30;99.90;;;;;;5039255;28;20302;-82
2024/01/29 10:49:24;;;;;;;10.10;5.60;;;5.30;99.90;;;;;;5038425;28;20191;-83
2024/01/29 10:52:13;;;;;;;10.00;5.73;;;5.30;99.90;;;;;;5053618;28;20253;-82
2024/01/29 10:55:02;;;;;;;8.20;5.27;;;5.40;99.90;;;;;;5053068;28;20281;-82
2024/01/29 10:57:50;;;;;;;9.27;5.10;;;5.40;99.90;;;;;;5052367;28;20225;-82
2024/01/29 11:00:41;;;;;;;9.43;5.70;;;5.40;99.90;;;;;;5052515;28;20239;-83
2024/01/29 11:03:30;;;;;;;9.40;5.37;;;5.40;99.90;;;;;;5052660;28;20206;-83
2024/01/29 11:06:32;;;;;;;10.13;5.53;;;5.50;99.90;;;;;;5022898;28;20717;-83
2024/01/29 11:09:24;;;;;;;9.27;5.07;;;5.50;99.90;;;;;;5038190;28;20698;-82
2024/01/29 11:12:13;;;;;;;8.43;5.40;;;5.50;99.90;;;;;;5038618;28;20214;-83
2024/01/29 11:15:04;;;;;;;8.40;5.17;;;5.60;99.90;;;;;;5052164;28;20274;-83
2024/01/29 11:17:51;;;;;;;10.35;6.05;;;5.60;99.90;;;;;;5051195;28;20432;-81
2024/01/29 11:20:40;;;;;;;8.30;5.50;;;5.60;99.90;;;;;;5052539;28;20634;-81
2024/01/29 11:23:28;;;;;;;8.93;5.20;;;5.80;99.90;;;;;;5053404;28;20667;-82
2024/01/29 11:26:18;;;;;;;9.45;5.78;;;5.80;99.90;;;;;;5052015;28;20495;-81
2024/01/29 11:29:07;;;;;;;11.63;5.50;;;5.90;99.90;;;;;;5052434;28;20201;-80
2024/01/29 11:31:59;;;;;;;10.90;5.20;;;5.90;99.90;;;;;;5051271;28;20196;-81
2024/01/29 11:34:47;;;;;;;10.93;5.53;;;6.00;99.90;;;;;;5052744;28;20546;-81
2024/01/29 11:37:35;;;;;;;7.60;4.70;;;6.00;99.90;;;;;;5051663;28;20195;-81
2024/01/29 11:40:42;;;;;;;9.77;4.93;;;6.00;99.90;;;;;;5038490;28;20192;-80
2024/01/29 11:43:31;;;;;;;9.17;5.10;;;6.00;99.90;;;;;;5037653;28;20257;-81
2024/01/29 11:46:22;;;;;;;11.30;5.37;;;6.00;99.90;;;;;;5052149;28;20222;-82
2024/01/29 11:49:10;;;;;;;7.97;5.17;;;6.20;99.90;;;;;;5038009;28;20200;-81
2024/01/29 11:51:58;;;;;;;7.50;5.00;;;6.50;99.90;;;;;;5038556;28;20193;-81
2024/01/29 11:54:46;;;;;;;10.77;5.00;;;7.30;99.90;;;;;;5051576;28;20643;-80
2024/01/29 11:57:33;;;;;;;10.07;5.10;;;8.30;99.90;;;;;;5038158;28;20312;-81
2024/01/29 12:00:20;;;;;;;8.20;4.90;;;9.10;99.90;;;;;;5052093;28;20202;-81
2024/01/29 12:03:10;;;;;;;6.70;4.10;;;10.00;99.90;;;;;;5038334;28;20194;-80
2024/01/29 12:05:58;;;;;;;6.80;4.43;;;10.40;99.90;;;;;;5038301;28;20312;-80
2024/01/29 12:08:49;;;;;;;7.57;4.60;;;10.90;99.90;;;;;;5051114;28;20655;-80
2024/01/29 12:11:36;;;;;;;9.30;5.03;;;11.90;99.90;;;;;;5051422;28;20685;-80
2024/01/29 12:14:24;;;;;;;8.47;5.00;;;12.80;99.90;;;;;;5051959;28;20643;-80
2024/01/29 12:17:14;;;;;;;8.87;4.97;;;13.30;99.90;;;;;;5038247;28;20203;-79
2024/01/29 12:20:02;;;;;;;10.23;5.07;;;13.90;99.90;;;;;;5055827;28;20207;-80
2024/01/29 12:22:49;;;;;;;10.77;4.57;;;14.80;99.90;;;;;;5055263;28;20186;-79
2024/01/29 12:25:37;;;;;;;7.97;4.90;;;15.00;99.90;;;;;;5055882;28;20202;-81
2024/01/29 12:28:27;;;;;;;11.30;4.60;;;15.40;99.90;;;;;;5055494;28;20195;-81
2024/01/29 12:31:17;;;;;;;8.47;4.90;;;14.80;99.90;;;;;;5055458;28;20187;-80
2024/01/29 12:34:07;;;;;;;6.30;4.47;;;13.80;99.90;;;;;;5054879;28;20199;-80
2024/01/29 12:36:55;;;;;;;8.77;4.60;;;12.70;99.90;;;;;;5054853;28;20200;-80
2024/01/29 12:39:55;;;;;;;9.60;4.90;;;11.90;99.90;;;;;;5041861;28;20194;-78
2024/01/29 12:42:43;;;;;;;8.80;4.67;;;11.50;99.90;;;;;;5054911;28;20307;-79
2024/01/29 12:45:34;;;;;;;7.07;4.23;;;10.90;99.90;;;;;;5055442;28;20194;-79
2024/01/29 12:48:26;;;;;;;7.90;4.50;;;10.00;99.90;;;;;;5054497;28;20227;-79
2024/01/29 12:51:14;;;;;;;8.33;4.70;;;9.60;99.90;;;;;;5041189;28;20199;-80
2024/01/29 12:54:02;;;;;;;7.53;4.50;;;9.30;99.90;;;;;;5054694;28;20273;-79
2024/01/29 12:56:52;;;;;;;8.93;4.53;;;9.10;99.90;;;;;;5056148;28;20225;-79
2024/01/29 12:59:39;;;;;;;8.20;4.77;;;8.90;99.90;;;;;;5039913;28;20369;-79
2024/01/29 13:02:26;;;;;;;7.37;4.50;;;8.50;99.90;;;;;;5040371;28;20630;-80
2024/01/29 13:05:14;;;;;;;8.63;4.87;;;8.50;99.90;;;;;;5055764;28;20273;-79
2024/01/29 13:08:01;;;;;;;9.50;4.80;;;8.30;99.90;;;;;;5055096;28;20221;-79
2024/01/29 13:10:49;;;;;;;8.13;4.80;;;8.90;99.90;;;;;;5040944;28;20198;-79
2024/01/29 13:13:37;;;;;;;7.93;4.60;;;9.50;99.90;;;;;;5055552;28;20201;-79
2024/01/29 13:16:25;;;;;;;8.43;4.57;;;9.80;99.90;;;;;;5039070;28;20217;-80
2024/01/29 13:19:13;;;;;;;7.87;4.57;;;10.20;99.90;;;;;;5054829;28;20195;-80
2024/01/29 13:22:00;;;;;;;7.90;4.70;;;10.40;99.90;;;;;;5040895;28;20659;-80
2024/01/29 13:24:48;;;;;;;7.33;4.70;;;10.40;99.90;;;;;;5039956;28;20194;-80
2024/01/29 13:27:37;;;;;;;9.10;4.67;;;10.60;99.90;;;;;;5041004;28;20320;-80
2024/01/29 13:30:24;;;;;;;8.53;4.40;;;10.40;99.90;;;;;;5040213;28;20651;-81
2024/01/29 13:33:12;;;;;;;8.07;4.67;;;10.60;99.90;;;;;;5041885;28;20202;-80
2024/01/29 13:36:00;;;;;;;9.03;5.00;;;10.80;99.90;;;;;;5054205;28;20191;-80
2024/01/29 13:38:47;;;;;;;9.17;4.90;;;10.80;99.90;;;;;;5054946;28;20572;-79
2024/01/29 13:41:35;;;;;;;8.33;4.80;;;11.20;99.90;;;;;;5054101;28;20222;-80
2024/01/29 13:44:22;;;;;;;9.40;4.70;;;11.40;99.90;;;;;;5054906;28;20202;-80
2024/01/29 13:47:09;;;;;;;7.83;4.90;;;11.60;99.90;;;;;;5054245;28;20260;-80
2024/01/29 13:50:00;;;;;;;8.87;4.83;;;11.70;99.90;;;;;;5053741;28;20197;-79
2024/01/29 13:52:47;;;;;;;10.53;5.17;;;11.30;99.90;;;;;;5040096;28;20615;-80
2024/01/29 13:55:35;;;;;;;7.87;4.47;;;11.50;99.90;;;;;;5039535;28;20207;-80
2024/01/29 13:58:22;;;;;;;8.23;4.80;;;11.50;99.90;;;;;;5054626;28;20541;-79
2024/01/29 14:01:11;;;;;;;9.40;4.80;;;11.60;99.90;;;;;;5054810;28;20640;-80
2024/01/29 14:03:58;;;;;;;10.07;5.13;;;11.60;99.90;;;;;;5040500;28;20187;-81
2024/01/29 14:06:59;;;;;;;8.93;5.03;;;11.50;99.90;;;;;;5034403;28;20718;-81
2024/01/29 14:09:47;;;;;;;8.67;5.10;;;11.50;99.90;;;;;;5034091;28;20242;-79
2024/01/29 14:12:35;;;;;;;7.93;4.93;;;11.00;99.90;;;;;;5019330;28;20220;-79
2024/01/29 14:15:22;;;;;;;8.70;5.20;;;11.00;99.90;;;;;;5033975;28;20203;-79
2024/01/29 14:18:09;;;;;;;9.50;4.93;;;11.20;99.90;;;;;;5033133;28;20195;-79
2024/01/29 14:20:57;;;;;;;9.27;5.20;;;11.10;99.90;;;;;;5018013;28;20282;-80
2024/01/29 14:23:44;;;;;;;12.60;6.10;;;10.90;99.90;;;;;;5032890;28;20265;-80
2024/01/29 14:26:32;;;;;;;9.17;5.47;;;10.50;99.90;;;;;;5019156;28;20248;-79
2024/01/29 14:29:19;;;;;;;10.93;5.23;;;10.30;99.90;;;;;;5034084;28;20276;-80
2024/01/29 14:32:08;;;;;;;11.47;5.80;;;10.20;99.90;;;;;;5033042;28;20202;-80
2024/01/29 14:34:58;;;;;;;10.33;5.43;;;10.00;99.90;;;;;;5019215;28;20190;-79
2024/01/29 14:37:45;;;;;;;10.17;5.20;;;9.70;99.90;;;;;;5033128;28;20195;-79